createdAt,value
2018-11-22T00:04:20.294Z,38.27
2018-11-22T00:09:23.502Z,38.40
2018-11-22T00:14:26.965Z,36.37
2018-11-22T00:19:30.708Z,41.43
2018-11-22T00:24:33.914Z,37.37
2018-11-22T00:29:37.362Z,39.47
2018-11-22T00:34:40.886Z,37.67
2018-11-22T00:39:44.044Z,40.87
2018-11-22T00:44:47.795Z,37.27
2018-11-22T00:49:51.030Z,38.27
2018-11-22T00:54:54.183Z,40.57
2018-11-22T00:59:57.756Z,38.80
2018-11-22T01:05:00.951Z,37.87
2018-11-22T01:10:04.387Z,38.93
2018-11-22T01:15:07.940Z,38.30
2018-11-22T01:20:13.724Z,38.97
2018-11-22T01:25:17.899Z,39.63
2018-11-22T01:30:22.538Z,38.40
2018-11-22T01:35:26.401Z,39.43
2018-11-22T01:40:29.888Z,37.43
2018-11-22T01:45:33.646Z,37.73
2018-11-22T01:50:37.153Z,35.93
2018-11-22T01:55:41.014Z,38.80
2018-11-22T02:00:44.600Z,38.03
2018-11-22T02:05:48.075Z,41.93
2018-11-22T02:10:51.720Z,35.27
2018-11-22T02:15:54.902Z,36.90
2018-11-22T02:20:59.177Z,39.00
2018-11-22T02:26:02.346Z,36.93
2018-11-22T02:31:06.469Z,38.77
2018-11-22T02:36:10.322Z,39.30
2018-11-22T02:41:13.926Z,40.03
2018-11-22T02:46:17.455Z,41.07
2018-11-22T02:51:20.979Z,38.27
2018-11-22T02:56:24.861Z,37.40
2018-11-22T03:01:28.374Z,36.70
2018-11-22T03:06:31.887Z,37.77
2018-11-22T03:11:35.309Z,40.97
2018-11-22T03:16:38.489Z,34.70
2018-11-22T03:21:41.956Z,37.63
2018-11-22T03:26:45.156Z,41.23
2018-11-22T03:31:48.315Z,40.00
2018-11-22T03:36:51.510Z,39.27
2018-11-22T03:41:54.975Z,38.27
2018-11-22T03:46:58.136Z,39.97
2018-11-22T03:52:01.829Z,40.30
2018-11-22T03:57:05.325Z,36.03
2018-11-22T04:02:08.675Z,38.70
2018-11-22T04:07:12.148Z,40.17
2018-11-22T04:12:15.434Z,42.13
2018-11-22T04:17:18.586Z,37.07
2018-11-22T04:22:22.368Z,40.37
2018-11-22T04:27:25.548Z,37.97
2018-11-22T04:32:28.713Z,36.47
2018-11-22T04:37:32.217Z,34.10
2018-11-22T04:42:35.756Z,35.10
2018-11-22T04:47:39.344Z,33.43
2018-11-22T04:52:42.576Z,34.23
2018-11-22T04:57:45.742Z,33.80
2018-11-22T05:02:49.293Z,33.03
2018-11-22T05:07:52.600Z,31.57
2018-11-22T05:12:56.077Z,34.73
2018-11-22T05:17:59.822Z,33.70
2018-11-22T05:23:03.342Z,33.50
2018-11-22T05:28:06.527Z,29.90
2018-11-22T05:33:09.969Z,33.00
2018-11-22T05:38:13.455Z,32.13
2018-11-22T05:43:16.636Z,32.23
2018-11-22T05:48:19.808Z,30.63
2018-11-22T05:53:22.959Z,32.03
2018-11-22T05:58:26.391Z,33.60
2018-11-22T06:03:29.811Z,32.83
2018-11-22T06:08:33.032Z,34.03
2018-11-22T06:13:36.746Z,36.33
2018-11-22T06:18:40.211Z,30.33
2018-11-22T06:23:44.457Z,32.83
2018-11-22T06:28:49.158Z,34.13
2018-11-22T06:33:51.963Z,32.93
2018-11-22T06:38:55.192Z,33.17
2018-11-22T06:43:58.928Z,31.67
2018-11-22T06:49:02.089Z,31.80
2018-11-22T06:54:05.716Z,32.10
2018-11-22T06:59:09.314Z,32.20
2018-11-22T07:04:13.144Z,29.60
2018-11-22T07:09:16.345Z,31.90
2018-11-22T07:14:19.797Z,30.80
2018-11-22T07:19:22.948Z,30.23
2018-11-22T07:24:26.801Z,28.83
2018-11-22T07:29:30.642Z,32.40
2018-11-22T07:34:34.102Z,29.70
2018-11-22T07:39:37.602Z,29.30
2018-11-22T07:44:41.015Z,30.17
2018-11-22T07:49:44.542Z,27.77
2018-11-22T07:54:48.340Z,27.83
2018-11-22T07:59:51.813Z,26.90
2018-11-22T08:04:55.676Z,30.03
2018-11-22T08:09:59.397Z,30.63
2018-11-22T08:15:02.932Z,27.77
2018-11-22T08:20:07.431Z,27.33
2018-11-22T08:25:12.570Z,24.63
2018-11-22T08:30:16.738Z,24.83
2018-11-22T08:35:20.630Z,30.57
2018-11-22T08:40:28.288Z,31.10
2018-11-22T08:45:32.484Z,28.37
2018-11-22T08:50:35.821Z,27.33
2018-11-22T08:55:39.712Z,26.17
2018-11-22T09:00:43.254Z,27.20
2018-11-22T09:05:46.387Z,28.13
2018-11-22T09:10:49.559Z,27.77
2018-11-22T09:15:53.056Z,27.77
2018-11-22T12:18:37.256Z,21.03
2018-11-22T12:23:40.404Z,23.43
2018-11-22T12:28:43.554Z,20.13
2018-11-22T12:33:50.941Z,19.40
2018-11-22T12:38:54.095Z,19.07
2018-11-22T12:43:57.242Z,19.30
2018-11-22T12:49:00.439Z,15.97
2018-11-22T12:54:03.727Z,17.90
2018-11-22T12:59:06.883Z,16.37
2018-11-22T13:04:10.065Z,15.77
2018-11-22T13:10:42.427Z,19.77
2018-11-22T13:15:45.574Z,16.70
2018-11-22T13:20:48.699Z,18.43
2018-11-22T13:25:51.835Z,19.13
2018-11-22T13:30:54.965Z,17.10
2018-11-22T13:35:58.103Z,17.30
2018-11-22T13:41:01.316Z,18.07
2018-11-22T13:46:05.376Z,15.73
2018-11-22T13:51:07.564Z,17.37
2018-11-22T13:56:10.804Z,15.80
2018-11-22T14:01:14.047Z,18.60
2018-11-22T14:06:17.563Z,16.60
2018-11-22T14:11:20.734Z,15.10
2018-11-22T14:16:23.950Z,15.87
2018-11-22T14:21:27.071Z,14.50
2018-11-22T14:26:30.280Z,15.53
2018-11-22T14:31:33.462Z,15.57
2018-11-22T14:36:36.686Z,15.17
2018-11-22T14:43:04.569Z,16.27
2018-11-22T14:48:08.952Z,17.87
2018-11-22T14:53:14.945Z,14.97
2018-11-22T14:58:18.088Z,17.20
2018-11-22T15:03:21.303Z,15.73
2018-11-22T15:08:24.506Z,16.37
2018-11-22T15:13:27.822Z,15.93
2018-11-22T15:18:31.032Z,14.83
2018-11-22T15:23:34.182Z,13.63
2018-11-22T15:28:37.318Z,18.33
2018-11-22T15:33:40.463Z,15.00
2018-11-22T15:38:43.662Z,17.07
2018-11-22T15:43:46.845Z,13.43
2018-11-22T15:48:49.990Z,14.93
2018-11-22T15:53:53.242Z,16.53
2018-11-22T15:58:56.550Z,15.77
2018-11-22T16:03:59.818Z,14.43
2018-11-22T16:09:03.429Z,16.17
2018-11-22T16:14:06.814Z,16.87
2018-11-22T16:19:10.009Z,15.67
2018-11-22T16:24:13.319Z,17.07
2018-11-22T16:29:16.574Z,14.93
2018-11-22T16:34:19.786Z,16.10
2018-11-22T16:39:22.999Z,14.40
2018-11-22T16:44:26.233Z,17.93
2018-11-22T16:49:29.474Z,17.73
2018-11-22T16:54:32.618Z,16.13
2018-11-22T16:59:35.960Z,16.50
2018-11-22T17:04:39.206Z,18.10
2018-11-22T17:09:42.378Z,18.43
2018-11-22T17:14:45.579Z,17.07
2018-11-22T17:19:48.787Z,18.47
2018-11-22T17:24:51.918Z,18.87
2018-11-22T17:29:55.050Z,17.73
2018-11-22T17:34:58.170Z,15.17
2018-11-22T17:40:01.303Z,17.47
2018-11-22T17:45:05.611Z,16.60
2018-11-22T17:50:11.225Z,19.77
2018-11-22T17:55:17.461Z,22.93
2018-11-22T18:00:24.811Z,20.70
2018-11-22T18:05:27.995Z,24.67
2018-11-22T18:10:32.472Z,19.20
2018-11-22T18:16:06.530Z,30.33
2018-11-22T18:21:09.714Z,20.87
2018-11-22T18:26:12.915Z,21.63
2018-11-22T18:31:16.091Z,20.60
2018-11-22T18:36:19.265Z,24.77
2018-11-22T18:41:22.446Z,20.90
2018-11-22T18:46:25.680Z,20.13
2018-11-22T18:51:28.874Z,19.43
2018-11-22T18:56:37.006Z,19.10
2018-11-22T19:01:35.418Z,18.97
2018-11-22T19:06:38.612Z,20.13
2018-11-22T19:11:41.803Z,18.73
2018-11-22T19:16:45.619Z,21.47
2018-11-22T19:21:48.849Z,16.13
2018-11-22T19:26:52.176Z,19.00
2018-11-22T19:31:55.411Z,16.93
2018-11-22T19:36:58.595Z,18.60
2018-11-22T19:42:01.787Z,18.03
2018-11-22T19:47:04.990Z,20.60
2018-11-22T19:52:08.231Z,20.10
2018-11-22T19:57:11.416Z,21.40
2018-11-22T20:02:14.656Z,18.77
2018-11-22T20:07:38.342Z,20.07
2018-11-22T20:12:42.845Z,22.57
2018-11-22T20:17:47.073Z,20.50
2018-11-22T20:22:50.594Z,18.70
2018-11-22T20:27:54.930Z,21.93
2018-11-22T20:32:58.124Z,21.87
2018-11-22T20:38:01.367Z,20.40
2018-11-22T20:43:05.123Z,19.67
2018-11-22T20:48:08.630Z,19.97
2018-11-22T20:53:11.790Z,20.90
2018-11-22T20:58:15.050Z,19.97
2018-11-22T21:03:18.261Z,19.90
2018-11-22T21:08:21.510Z,19.37
2018-11-22T21:13:24.797Z,20.47
2018-11-22T21:18:27.966Z,20.67
2018-11-22T21:23:31.176Z,20.07
2018-11-22T21:28:34.510Z,22.20
2018-11-22T21:33:37.698Z,20.47
2018-11-22T21:38:40.951Z,20.87
2018-11-22T21:43:44.419Z,21.50
2018-11-22T21:48:47.637Z,19.80
2018-11-22T21:53:50.868Z,22.43
2018-11-22T21:58:54.669Z,20.50
2018-11-22T22:03:57.833Z,20.27
2018-11-22T22:09:01.039Z,21.13
2018-11-22T22:14:04.666Z,17.87
2018-11-22T22:19:07.817Z,20.57
2018-11-22T22:24:11.014Z,20.47
2018-11-22T22:29:14.174Z,21.03
2018-11-22T22:34:17.652Z,20.40
2018-11-22T22:39:20.822Z,20.77
2018-11-22T22:44:24.097Z,21.80
2018-11-22T22:49:27.289Z,21.07
2018-11-22T22:54:30.486Z,20.93
2018-11-22T22:59:33.643Z,22.73
2018-11-22T23:04:36.801Z,22.33
2018-11-22T23:09:39.952Z,21.43
2018-11-22T23:14:43.331Z,22.17
2018-11-22T23:19:46.527Z,20.53
2018-11-22T23:24:49.687Z,22.30
2018-11-22T23:29:52.822Z,20.17
2018-11-22T23:34:55.970Z,27.37
2018-11-22T23:39:59.154Z,20.47
2018-11-22T23:45:02.371Z,20.87
2018-11-22T23:50:07.414Z,23.03
2018-11-22T23:55:10.646Z,22.37
